createdAt,value
2022-10-19T00:01:03.047Z,0.05
2022-10-19T00:03:30.241Z,0.28
2022-10-19T00:05:57.249Z,0.15
2022-10-19T00:08:24.246Z,0.10
2022-10-19T00:10:51.257Z,0.10
2022-10-19T00:13:18.251Z,0.10
2022-10-19T00:15:45.257Z,0.10
2022-10-19T00:18:12.213Z,0.45
2022-10-19T00:20:39.138Z,0.10
2022-10-19T00:23:06.076Z,0.10
2022-10-19T00:25:33.043Z,0.10
2022-10-19T00:28:00.815Z,0.00
2022-10-19T00:30:27.995Z,0.17
2022-10-19T00:32:54.935Z,0.20
2022-10-19T00:35:22.082Z,0.10
2022-10-19T00:37:49.092Z,0.00
2022-10-19T00:40:15.984Z,0.10
2022-10-19T00:42:42.957Z,0.10
2022-10-19T00:45:15.456Z,0.10
2022-10-19T00:47:42.713Z,0.17
2022-10-19T00:50:10.914Z,0.20
2022-10-19T00:52:37.876Z,0.20
2022-10-19T00:55:05.219Z,0.65
2022-10-19T00:57:32.470Z,0.10
2022-10-19T00:59:59.483Z,0.20
2022-10-19T01:02:26.621Z,0.30
2022-10-19T01:04:53.578Z,0.30
2022-10-19T01:07:20.596Z,0.20
2022-10-19T01:09:47.575Z,0.00
2022-10-19T01:12:17.406Z,0.10
2022-10-19T01:15:03.474Z,0.10
2022-10-19T01:18:08.142Z,0.63
2022-10-19T01:21:03.352Z,0.22
2022-10-19T01:23:39.797Z,0.20
2022-10-19T01:29:01.661Z,0.10
2022-10-19T01:32:06.863Z,0.10
2022-10-19T01:34:40.171Z,0.15
2022-10-19T01:37:10.565Z,0.00
2022-10-19T01:39:52.690Z,0.30
2022-10-19T01:42:35.526Z,0.10
2022-10-19T01:45:27.410Z,0.22
2022-10-19T01:47:57.467Z,0.30
2022-10-19T01:50:49.824Z,0.20
2022-10-19T01:53:17.392Z,0.30
2022-10-19T01:55:45.419Z,0.08
2022-10-19T01:58:14.672Z,0.00
2022-10-19T02:00:42.708Z,0.28
2022-10-19T02:03:09.766Z,0.30
2022-10-19T02:05:36.871Z,0.10
2022-10-19T02:08:11.078Z,0.03
2022-10-19T02:10:38.405Z,0.20
2022-10-19T02:13:05.629Z,0.20
2022-10-19T02:15:32.764Z,0.10
2022-10-19T02:18:00.060Z,0.10
2022-10-19T02:20:27.574Z,0.10
2022-10-19T02:22:54.951Z,0.10
2022-10-19T02:25:22.259Z,0.10
2022-10-19T02:27:50.120Z,0.10
2022-10-19T02:30:17.813Z,0.00
2022-10-19T02:32:44.806Z,0.17
2022-10-19T02:35:12.097Z,0.13
2022-10-19T02:37:39.255Z,0.30
2022-10-19T02:40:06.947Z,0.00
2022-10-19T02:42:40.729Z,0.00
2022-10-19T02:45:07.712Z,0.10
2022-10-19T02:47:39.967Z,0.00
2022-10-19T02:50:07.926Z,0.10
2022-10-19T02:52:40.008Z,0.17
2022-10-19T02:55:07.735Z,0.00
2022-10-19T02:57:35.313Z,0.15
2022-10-19T03:00:03.935Z,0.00
2022-10-19T03:02:30.924Z,0.00
2022-10-19T03:04:57.868Z,0.08
2022-10-19T03:07:24.860Z,0.30
2022-10-19T03:09:51.844Z,0.10
2022-10-19T03:12:19.001Z,0.00
2022-10-19T03:14:45.947Z,0.40
2022-10-19T03:17:13.099Z,0.10
2022-10-19T03:19:40.111Z,0.28
2022-10-19T03:22:07.098Z,0.00
2022-10-19T03:24:35.430Z,0.00
2022-10-19T03:27:02.419Z,0.00
2022-10-19T03:29:29.502Z,0.22
2022-10-19T03:31:56.607Z,0.05
2022-10-19T03:34:23.742Z,0.03
2022-10-19T03:36:50.696Z,0.03
2022-10-19T03:39:17.758Z,0.25
2022-10-19T03:41:44.910Z,0.32
2022-10-19T03:44:11.970Z,0.20
2022-10-19T03:46:39.184Z,0.15
2022-10-19T03:49:06.299Z,0.05
2022-10-19T03:51:33.463Z,0.03
2022-10-19T03:54:02.173Z,0.20
2022-10-19T03:56:29.912Z,0.10
2022-10-19T03:58:57.525Z,0.45
2022-10-19T04:01:49.674Z,0.08
2022-10-19T04:04:18.032Z,0.03
2022-10-19T04:06:46.609Z,0.00
2022-10-19T04:09:15.700Z,0.10
2022-10-19T04:11:42.929Z,0.20
2022-10-19T04:14:16.002Z,0.28
2022-10-19T04:16:50.182Z,0.20
2022-10-19T04:19:17.207Z,0.10
2022-10-19T04:21:45.046Z,0.55
2022-10-19T04:24:17.055Z,0.10
2022-10-19T04:26:49.229Z,0.38
2022-10-19T04:29:16.690Z,0.10
2022-10-19T04:31:43.909Z,0.10
2022-10-19T04:34:11.156Z,0.10
2022-10-19T04:36:38.314Z,0.10
2022-10-19T04:39:05.588Z,0.10
2022-10-19T04:41:33.305Z,0.20
2022-10-19T04:44:01.656Z,0.00
2022-10-19T04:46:29.159Z,0.10
2022-10-19T04:48:56.594Z,0.20
2022-10-19T04:51:24.137Z,0.10
2022-10-19T04:53:52.470Z,0.30
2022-10-19T04:56:21.739Z,0.25
2022-10-19T04:58:49.021Z,0.20
2022-10-19T05:01:20.479Z,0.10
2022-10-19T05:03:47.943Z,0.25
2022-10-19T05:06:15.145Z,0.10
2022-10-19T05:08:42.528Z,0.08
2022-10-19T05:11:14.393Z,0.43
2022-10-19T05:13:42.101Z,0.63
2022-10-19T05:16:11.239Z,0.20
2022-10-19T05:18:38.203Z,0.35
2022-10-19T05:21:15.032Z,0.10
2022-10-19T05:23:42.222Z,0.25
2022-10-19T05:26:14.096Z,0.20
2022-10-19T05:28:41.411Z,0.20
2022-10-19T05:31:16.599Z,0.80
2022-10-19T05:33:43.945Z,0.25
2022-10-19T05:36:14.208Z,0.65
2022-10-19T05:38:41.797Z,0.32
2022-10-19T05:41:08.856Z,0.32
2022-10-19T05:43:35.901Z,0.45
2022-10-19T05:46:07.494Z,0.17
2022-10-19T05:48:35.137Z,0.10
2022-10-19T05:51:02.827Z,0.77
2022-10-19T05:53:30.090Z,0.10
2022-10-19T05:55:57.298Z,0.60
2022-10-19T05:58:24.375Z,0.20
2022-10-19T06:00:55.214Z,0.50
2022-10-19T06:03:22.351Z,0.20
2022-10-19T06:05:49.879Z,0.10
2022-10-19T06:08:20.479Z,0.35
2022-10-19T06:10:47.633Z,0.20
2022-10-19T06:13:14.914Z,0.40
2022-10-19T06:15:42.236Z,1.13
2022-10-19T06:18:10.358Z,0.10
2022-10-19T06:20:38.709Z,0.65
2022-10-19T06:23:06.027Z,0.73
2022-10-19T06:25:33.752Z,0.47
2022-10-19T06:28:01.042Z,0.43
2022-10-19T06:30:28.167Z,0.88
2022-10-19T06:32:55.317Z,0.43
2022-10-19T06:35:22.903Z,0.35
2022-10-19T06:37:50.072Z,0.40
2022-10-19T06:40:17.893Z,0.47
2022-10-19T06:42:45.033Z,0.45
2022-10-19T06:45:12.146Z,0.20
2022-10-19T06:47:39.387Z,0.20
2022-10-19T06:50:07.011Z,0.28
2022-10-19T06:52:35.228Z,0.32
2022-10-19T06:55:02.874Z,0.50
2022-10-19T06:57:30.491Z,0.32
2022-10-19T06:59:57.697Z,0.70
2022-10-19T07:02:24.778Z,1.48
2022-10-19T07:04:51.699Z,1.00
2022-10-19T07:07:18.837Z,0.28
2022-10-19T07:09:45.896Z,0.80
2022-10-19T07:12:12.921Z,0.52
2022-10-19T07:14:39.971Z,0.63
2022-10-19T07:17:07.478Z,0.57
2022-10-19T07:19:34.957Z,0.40
2022-10-19T07:22:02.049Z,0.40
2022-10-19T07:24:29.378Z,0.60
2022-10-19T07:26:56.444Z,0.47
2022-10-19T07:29:23.611Z,0.10
2022-10-19T07:31:50.561Z,0.35
2022-10-19T07:34:17.587Z,0.40
2022-10-19T07:36:46.068Z,0.28
2022-10-19T07:39:13.220Z,0.40
2022-10-19T07:41:40.234Z,0.20
2022-10-19T07:44:09.982Z,0.77
2022-10-19T07:46:39.363Z,0.32
2022-10-19T07:49:09.856Z,0.57
2022-10-19T07:51:40.027Z,0.30
2022-10-19T07:54:07.153Z,0.38
2022-10-19T07:56:34.102Z,0.20
2022-10-19T07:59:01.495Z,0.30
2022-10-19T08:01:33.863Z,0.35
2022-10-19T08:06:48.189Z,0.20
2022-10-19T08:09:39.963Z,0.45
2022-10-19T08:12:05.414Z,0.35
2022-10-19T08:14:32.913Z,0.30
2022-10-19T08:17:01.383Z,0.50
2022-10-19T08:19:28.553Z,0.10
2022-10-19T08:21:55.811Z,0.40
2022-10-19T08:24:22.751Z,0.82
2022-10-19T08:26:51.315Z,0.30
2022-10-19T08:29:19.621Z,0.40
2022-10-19T08:31:47.064Z,0.57
2022-10-19T08:34:14.294Z,0.30
2022-10-19T08:39:10.009Z,0.50
2022-10-19T08:41:40.139Z,0.17
2022-10-19T08:44:10.289Z,0.17
2022-10-19T08:46:52.437Z,0.25
2022-10-19T08:49:21.799Z,0.20
2022-10-19T08:51:51.515Z,0.65
2022-10-19T08:54:18.678Z,0.63
2022-10-19T08:57:05.437Z,0.40
2022-10-19T08:59:39.438Z,0.50
2022-10-19T09:02:15.490Z,0.43
2022-10-19T09:04:45.719Z,1.10
2022-10-19T09:07:30.099Z,0.38
2022-10-19T09:10:03.502Z,0.20
2022-10-19T09:12:57.733Z,0.30
2022-10-19T09:15:46.730Z,0.93
2022-10-19T09:18:22.696Z,0.35
2022-10-19T09:20:51.317Z,0.45
2022-10-19T09:23:22.295Z,0.43
2022-10-19T09:25:50.229Z,0.15
2022-10-19T09:28:52.523Z,0.32
2022-10-19T09:31:26.248Z,0.60
2022-10-19T09:33:57.376Z,0.30
2022-10-19T09:36:33.235Z,0.70
2022-10-19T09:39:16.292Z,0.20
2022-10-19T09:42:12.387Z,0.90
2022-10-19T09:44:39.583Z,0.50
2022-10-19T09:47:20.257Z,0.38
2022-10-19T09:49:48.799Z,0.60
2022-10-19T09:52:41.962Z,1.05
2022-10-19T09:55:14.997Z,0.43
2022-10-19T09:57:48.612Z,0.52
2022-10-19T10:00:31.077Z,0.40
2022-10-19T10:02:58.386Z,0.43
2022-10-19T10:05:38.128Z,0.32
2022-10-19T10:08:12.464Z,0.68
2022-10-19T10:10:42.591Z,0.93
2022-10-19T10:13:19.738Z,0.63
2022-10-19T10:16:03.290Z,0.43
2022-10-19T10:18:30.414Z,0.95
2022-10-19T10:21:05.892Z,0.52
2022-10-19T10:23:36.353Z,0.70
2022-10-19T10:26:04.235Z,0.73
2022-10-19T10:28:31.559Z,0.20
2022-10-19T10:31:08.205Z,0.35
2022-10-19T10:33:45.392Z,0.40
2022-10-19T10:36:12.950Z,0.50
2022-10-19T10:38:46.139Z,0.40
2022-10-19T10:41:15.913Z,0.70
2022-10-19T10:44:03.885Z,0.17
2022-10-19T10:46:55.784Z,0.52
2022-10-19T10:49:32.092Z,0.50
2022-10-19T10:52:01.515Z,0.20
2022-10-19T10:54:32.248Z,0.40
2022-10-19T10:57:17.496Z,0.68
2022-10-19T11:00:12.133Z,0.20
2022-10-19T11:02:49.594Z,0.38
2022-10-19T11:05:26.576Z,0.30
2022-10-19T11:08:03.432Z,0.45
2022-10-19T11:10:32.188Z,0.45
2022-10-19T11:13:02.424Z,0.17
2022-10-19T11:15:37.384Z,1.25
2022-10-19T11:18:23.938Z,1.00
2022-10-19T11:21:11.845Z,0.40
2022-10-19T11:24:17.641Z,0.28
2022-10-19T11:27:23.667Z,1.45
2022-10-19T11:29:50.650Z,0.50
2022-10-19T11:32:27.069Z,0.70
2022-10-19T11:35:10.131Z,0.57
2022-10-19T11:37:49.807Z,0.75
2022-10-19T11:40:36.202Z,0.32
2022-10-19T11:43:11.203Z,0.38
2022-10-19T11:45:56.224Z,0.70
2022-10-19T11:48:59.468Z,0.20
2022-10-19T11:51:45.911Z,0.45
2022-10-19T11:57:06.425Z,0.10
2022-10-19T11:59:53.722Z,1.95
2022-10-19T12:02:45.176Z,0.85
2022-10-19T12:05:12.257Z,0.70
2022-10-19T12:07:41.375Z,0.43
2022-10-19T12:10:20.165Z,0.60
2022-10-19T12:13:11.682Z,0.40
2022-10-19T12:15:44.230Z,0.40
2022-10-19T12:18:28.377Z,0.75
2022-10-19T12:20:57.269Z,0.30
2022-10-19T12:23:43.844Z,0.25
2022-10-19T12:28:40.576Z,0.40
2022-10-19T12:31:07.572Z,0.43
2022-10-19T12:33:44.177Z,0.30
2022-10-19T12:36:26.273Z,0.50
2022-10-19T12:39:32.110Z,0.80
2022-10-19T12:42:13.870Z,0.40
2022-10-19T12:45:05.908Z,0.90
2022-10-19T12:47:33.305Z,0.47
2022-10-19T12:50:00.537Z,0.98
2022-10-19T12:52:38.958Z,0.40
2022-10-19T12:55:12.978Z,0.40
2022-10-19T12:57:42.883Z,0.50
2022-10-19T13:00:21.792Z,0.52
2022-10-19T13:02:56.235Z,0.17
2022-10-19T13:05:27.714Z,0.40
2022-10-19T13:07:54.933Z,0.40
2022-10-19T13:10:25.858Z,1.13
2022-10-19T13:12:55.902Z,0.22
2022-10-19T13:15:38.489Z,0.20
2022-10-19T13:18:12.828Z,0.70
2022-10-19T13:23:07.549Z,0.70
2022-10-19T13:25:41.125Z,0.60
2022-10-19T13:28:09.449Z,0.77
2022-10-19T13:30:36.818Z,0.40
2022-10-19T13:33:22.735Z,0.30
2022-10-19T13:35:49.921Z,0.60
2022-10-19T13:38:16.805Z,0.77
2022-10-19T13:40:49.932Z,0.55
2022-10-19T13:43:24.515Z,0.68
2022-10-19T13:46:11.552Z,0.45
2022-10-19T13:49:16.350Z,0.90
2022-10-19T13:51:49.640Z,0.20
2022-10-19T13:54:26.468Z,0.22
2022-10-19T13:57:18.237Z,0.45
2022-10-19T14:00:03.787Z,0.60
2022-10-19T14:02:46.400Z,0.30
2022-10-19T14:05:46.169Z,0.32
2022-10-19T14:08:38.271Z,0.30
2022-10-19T14:11:06.356Z,0.40
2022-10-19T14:13:34.831Z,1.60
2022-10-19T14:16:03.038Z,0.40
2022-10-19T14:18:32.012Z,0.40
2022-10-19T14:21:06.365Z,0.45
2022-10-19T14:23:35.009Z,0.47
2022-10-19T14:26:04.447Z,0.70
2022-10-19T14:28:31.683Z,0.43
2022-10-19T14:31:09.372Z,0.63
2022-10-19T14:33:40.471Z,0.70
2022-10-19T14:36:08.041Z,1.27
2022-10-19T14:38:37.400Z,0.98
2022-10-19T14:41:05.289Z,0.60
2022-10-19T14:43:33.040Z,0.40
2022-10-19T14:46:18.171Z,0.60
2022-10-19T14:48:46.791Z,0.40
2022-10-19T14:51:52.010Z,0.65
2022-10-19T14:54:31.558Z,0.73
2022-10-19T14:57:04.242Z,0.90
2022-10-19T14:59:38.297Z,0.75
2022-10-19T15:02:44.262Z,0.57
2022-10-19T15:05:19.563Z,0.93
2022-10-19T15:07:46.546Z,0.57
2022-10-19T15:10:43.380Z,0.65
2022-10-19T15:13:39.022Z,0.60
2022-10-19T15:16:06.134Z,1.15
2022-10-19T15:18:49.618Z,0.93
2022-10-19T15:21:20.438Z,0.40
2022-10-19T15:23:51.701Z,0.82
2022-10-19T15:26:24.670Z,0.93
2022-10-19T15:28:53.852Z,1.10
2022-10-19T15:31:25.083Z,1.20
2022-10-19T15:33:54.026Z,0.52
2022-10-19T15:36:21.553Z,0.77
2022-10-19T15:39:25.021Z,1.00
2022-10-19T15:41:52.940Z,1.33
2022-10-19T15:44:40.107Z,0.70
2022-10-19T15:47:19.671Z,0.68
2022-10-19T15:49:46.932Z,1.25
2022-10-19T15:52:26.343Z,0.55
2022-10-19T15:54:55.312Z,0.95
2022-10-19T15:57:26.042Z,0.55
2022-10-19T15:59:55.601Z,0.60
2022-10-19T16:02:24.992Z,0.82
2022-10-19T16:04:53.638Z,1.65
2022-10-19T16:07:30.192Z,0.70
2022-10-19T16:09:57.355Z,0.70
2022-10-19T16:12:26.429Z,1.25
2022-10-19T16:14:54.264Z,0.55
2022-10-19T16:17:21.288Z,0.80
2022-10-19T16:19:48.334Z,0.95
2022-10-19T16:22:15.518Z,1.48
2022-10-19T16:24:42.473Z,1.00
2022-10-19T16:27:09.643Z,0.82
2022-10-19T16:29:36.667Z,1.13
2022-10-19T16:32:03.604Z,0.82
2022-10-19T16:34:30.530Z,0.82
2022-10-19T16:37:00.350Z,0.32
2022-10-19T16:39:28.739Z,0.93
2022-10-19T16:41:55.765Z,0.82
2022-10-19T16:44:22.757Z,0.70
2022-10-19T16:46:49.723Z,0.80
2022-10-19T16:49:16.611Z,1.27
2022-10-19T16:51:43.533Z,0.65
2022-10-19T16:54:11.523Z,0.95
2022-10-19T16:56:43.340Z,0.75
2022-10-19T16:59:11.041Z,1.30
2022-10-19T17:01:38.272Z,0.82
2022-10-19T17:04:05.267Z,1.02
2022-10-19T17:06:32.876Z,1.50
2022-10-19T17:09:36.729Z,1.10
2022-10-19T17:11:47.071Z,0.82
2022-10-19T17:14:14.056Z,0.70
2022-10-19T17:16:41.076Z,0.95
2022-10-19T17:19:08.515Z,0.98
2022-10-19T17:21:38.511Z,0.98
2022-10-19T17:24:08.472Z,1.10
2022-10-19T17:26:39.938Z,0.98
2022-10-19T17:29:06.929Z,0.77
2022-10-19T17:31:34.155Z,1.02
2022-10-19T17:34:01.918Z,0.90
2022-10-19T17:36:30.648Z,1.73
2022-10-19T17:38:59.394Z,1.27
2022-10-19T17:41:26.604Z,1.00
2022-10-19T17:43:53.895Z,1.02
2022-10-19T17:46:24.842Z,1.17
2022-10-19T17:48:52.128Z,1.38
2022-10-19T17:51:23.943Z,1.17
2022-10-19T17:53:51.160Z,1.60
2022-10-19T17:56:19.570Z,1.52
2022-10-19T17:58:46.563Z,2.05
2022-10-19T18:01:17.415Z,0.88
2022-10-19T18:03:44.725Z,1.30
2022-10-19T18:06:13.776Z,1.60
2022-10-19T18:08:43.479Z,1.17
2022-10-19T18:11:15.482Z,1.13
2022-10-19T18:13:42.691Z,1.70
2022-10-19T18:16:17.969Z,2.08
2022-10-19T18:18:48.605Z,1.50
2022-10-19T18:21:20.373Z,1.77
2022-10-19T18:23:47.919Z,1.75
2022-10-19T18:26:17.222Z,1.38
2022-10-19T18:28:44.271Z,1.77
2022-10-19T18:31:16.068Z,1.95
2022-10-19T18:33:43.316Z,2.05
2022-10-19T18:36:16.721Z,1.88
2022-10-19T18:38:44.792Z,1.92
2022-10-19T18:43:57.453Z,1.67
2022-10-19T18:46:26.051Z,1.60
2022-10-19T18:48:53.932Z,2.25
2022-10-19T18:51:21.595Z,1.50
2022-10-19T18:53:48.562Z,1.67
2022-10-19T18:56:17.491Z,1.98
2022-10-19T18:58:44.605Z,1.67
2022-10-19T19:01:16.295Z,2.53
2022-10-19T19:03:45.322Z,2.60
2022-10-19T19:06:22.910Z,2.60
2022-10-19T19:08:50.100Z,2.15
2022-10-19T19:11:22.285Z,2.50
2022-10-19T19:13:56.384Z,3.08
2022-10-19T19:16:23.899Z,2.28
2022-10-19T19:18:51.050Z,2.80
2022-10-19T19:21:22.975Z,2.67
2022-10-19T19:23:50.658Z,2.22
2022-10-19T19:26:18.243Z,2.75
2022-10-19T19:28:49.025Z,1.95
2022-10-19T19:31:19.049Z,2.38
2022-10-19T19:33:47.496Z,2.13
2022-10-19T19:36:15.244Z,2.42
2022-10-19T19:38:42.555Z,2.33
2022-10-19T19:41:12.019Z,3.65
2022-10-19T19:43:39.307Z,2.53
2022-10-19T19:46:12.582Z,3.35
2022-10-19T19:48:40.915Z,3.67
2022-10-19T19:51:18.766Z,1.92
2022-10-19T19:53:46.239Z,3.35
2022-10-19T19:56:13.657Z,2.60
2022-10-19T19:58:41.352Z,3.10
2022-10-19T20:01:13.631Z,4.45
2022-10-19T20:03:41.340Z,3.50
2022-10-19T20:06:08.397Z,3.10
2022-10-19T20:08:36.784Z,2.20
2022-10-19T20:11:05.399Z,3.67
2022-10-19T20:13:32.578Z,2.20
2022-10-19T20:16:02.471Z,2.72
2022-10-19T20:18:30.884Z,2.95
2022-10-19T20:21:02.264Z,3.25
2022-10-19T20:23:30.238Z,3.00
2022-10-19T20:25:58.667Z,3.00
2022-10-19T20:28:26.702Z,4.40
2022-10-19T20:31:04.201Z,2.78
2022-10-19T20:33:35.099Z,3.58
2022-10-19T20:36:06.731Z,3.25
2022-10-19T20:38:34.499Z,3.00
2022-10-19T20:41:08.495Z,4.28
2022-10-19T20:43:36.275Z,3.78
2022-10-19T20:46:04.527Z,3.28
2022-10-19T20:48:31.801Z,3.38
2022-10-19T20:51:33.550Z,3.63
2022-10-19T20:54:02.057Z,3.35
2022-10-19T20:56:31.309Z,3.20
2022-10-19T21:01:41.038Z,3.38
2022-10-19T21:06:46.576Z,3.05
2022-10-19T21:09:16.189Z,4.40
2022-10-19T21:11:44.193Z,2.95
2022-10-19T21:14:13.171Z,4.20
2022-10-19T21:16:40.220Z,3.60
2022-10-19T21:19:10.434Z,3.92
2022-10-19T21:21:41.257Z,3.80
2022-10-19T21:24:14.416Z,4.97
2022-10-19T21:26:42.985Z,3.33
2022-10-19T21:29:10.395Z,3.90
2022-10-19T21:31:39.151Z,4.40
2022-10-19T21:34:07.322Z,3.67
2022-10-19T21:36:34.541Z,3.65
2022-10-19T21:39:01.968Z,3.72
2022-10-19T21:41:29.113Z,3.50
2022-10-19T21:43:56.244Z,3.08
2022-10-19T21:46:23.549Z,4.03
2022-10-19T21:48:50.892Z,3.72
2022-10-19T21:51:39.713Z,3.75
2022-10-19T21:54:07.650Z,3.58
2022-10-19T21:56:34.980Z,4.43
2022-10-19T21:59:01.870Z,4.00
2022-10-19T22:01:29.661Z,3.95
2022-10-19T22:04:01.705Z,3.80
2022-10-19T22:06:29.765Z,5.78
2022-10-19T22:08:57.252Z,3.80
2022-10-19T22:11:25.447Z,3.33
2022-10-19T22:13:56.523Z,4.10
2022-10-19T22:16:23.836Z,4.20
2022-10-19T22:18:51.006Z,4.32
2022-10-19T22:21:20.548Z,3.85
2022-10-19T22:23:52.781Z,3.47
2022-10-19T22:26:22.327Z,3.85
2022-10-19T22:28:49.402Z,3.80
2022-10-19T22:31:16.402Z,4.70
2022-10-19T22:33:43.567Z,4.20
2022-10-19T22:36:11.118Z,5.53
2022-10-19T22:38:38.153Z,4.40
2022-10-19T22:41:05.051Z,3.80
2022-10-19T22:43:32.023Z,4.90
2022-10-19T22:45:59.177Z,5.05
2022-10-19T22:48:26.124Z,4.32
2022-10-19T22:50:54.387Z,4.43
2022-10-19T22:53:22.464Z,3.90
2022-10-19T22:55:49.377Z,4.00
2022-10-19T22:58:16.839Z,3.95
2022-10-19T23:00:43.777Z,3.35
2022-10-19T23:03:10.805Z,3.85
2022-10-19T23:05:37.744Z,4.50
2022-10-19T23:08:04.987Z,4.10
2022-10-19T23:10:32.878Z,4.05
2022-10-19T23:12:59.836Z,4.40
2022-10-19T23:15:26.960Z,4.35
2022-10-19T23:17:54.172Z,3.75
2022-10-19T23:20:21.151Z,4.20
2022-10-19T23:22:49.757Z,4.07
2022-10-19T23:25:16.902Z,4.20
2022-10-19T23:27:43.965Z,3.40
2022-10-19T23:30:11.345Z,5.35
2022-10-19T23:32:38.321Z,4.07
2022-10-19T23:35:09.911Z,4.43
2022-10-19T23:37:37.430Z,4.50
2022-10-19T23:40:05.222Z,3.90
2022-10-19T23:42:32.144Z,4.47
2022-10-19T23:44:59.136Z,4.90
2022-10-19T23:47:26.098Z,4.35
2022-10-19T23:49:53.027Z,5.25
2022-10-19T23:52:19.965Z,3.90
2022-10-19T23:54:46.890Z,5.10
2022-10-19T23:57:13.785Z,4.28
2022-10-19T23:59:40.900Z,4.43
